sensor_id;sensor_type;location;lat;lon;timestamp;P1;durP1;ratioP1;P2;durP2;ratioP2
51814;SDS011;37874;53.158;6.766;2023-05-13T00:00:30;3.17;;;1.88;;
51814;SDS011;37874;53.158;6.766;2023-05-13T00:02:56;2.28;;;1.63;;
51814;SDS011;37874;53.158;6.766;2023-05-13T00:05:22;3.13;;;1.95;;
51814;SDS011;37874;53.158;6.766;2023-05-13T00:07:47;3.15;;;1.75;;
51814;SDS011;37874;53.158;6.766;2023-05-13T00:10:13;2.40;;;1.67;;
51814;SDS011;37874;53.158;6.766;2023-05-13T00:12:40;2.92;;;1.70;;
51814;SDS011;37874;53.158;6.766;2023-05-13T00:15:06;3.08;;;1.80;;
51814;SDS011;37874;53.158;6.766;2023-05-13T00:17:32;4.15;;;2.00;;
51814;SDS011;37874;53.158;6.766;2023-05-13T00:19:57;2.67;;;1.85;;
51814;SDS011;37874;53.158;6.766;2023-05-13T00:22:23;2.63;;;2.00;;
51814;SDS011;37874;53.158;6.766;2023-05-13T00:24:48;3.38;;;1.98;;
51814;SDS011;37874;53.158;6.766;2023-05-13T00:27:14;2.28;;;1.60;;
51814;SDS011;37874;53.158;6.766;2023-05-13T00:29:40;2.83;;;1.77;;
51814;SDS011;37874;53.158;6.766;2023-05-13T00:32:05;2.95;;;1.80;;
51814;SDS011;37874;53.158;6.766;2023-05-13T00:34:31;2.95;;;1.80;;
51814;SDS011;37874;53.158;6.766;2023-05-13T00:36:57;2.38;;;1.75;;
51814;SDS011;37874;53.158;6.766;2023-05-13T00:39:22;2.63;;;1.55;;
51814;SDS011;37874;53.158;6.766;2023-05-13T00:41:48;2.75;;;1.65;;
51814;SDS011;37874;53.158;6.766;2023-05-13T00:44:14;3.22;;;1.73;;
51814;SDS011;37874;53.158;6.766;2023-05-13T00:46:39;4.25;;;1.85;;
51814;SDS011;37874;53.158;6.766;2023-05-13T00:49:06;3.28;;;2.00;;
51814;SDS011;37874;53.158;6.766;2023-05-13T00:51:31;3.20;;;1.90;;
51814;SDS011;37874;53.158;6.766;2023-05-13T00:53:57;3.15;;;1.50;;
51814;SDS011;37874;53.158;6.766;2023-05-13T00:56:24;2.45;;;1.55;;
51814;SDS011;37874;53.158;6.766;2023-05-13T00:58:50;2.50;;;1.75;;
51814;SDS011;37874;53.158;6.766;2023-05-13T01:04:01;2.70;;;1.70;;
51814;SDS011;37874;53.158;6.766;2023-05-13T01:11:57;2.97;;;1.58;;
51814;SDS011;37874;53.158;6.766;2023-05-13T01:14:33;4.05;;;1.70;;
51814;SDS011;37874;53.158;6.766;2023-05-13T01:17:06;2.65;;;1.80;;
51814;SDS011;37874;53.158;6.766;2023-05-13T01:19:38;3.22;;;1.90;;
51814;SDS011;37874;53.158;6.766;2023-05-13T01:22:07;2.47;;;1.80;;
51814;SDS011;37874;53.158;6.766;2023-05-13T01:24:32;2.70;;;1.67;;
51814;SDS011;37874;53.158;6.766;2023-05-13T01:26:58;2.80;;;1.73;;
51814;SDS011;37874;53.158;6.766;2023-05-13T01:29:24;2.50;;;1.50;;
51814;SDS011;37874;53.158;6.766;2023-05-13T01:31:50;2.83;;;1.80;;
51814;SDS011;37874;53.158;6.766;2023-05-13T01:34:17;3.15;;;1.70;;
51814;SDS011;37874;53.158;6.766;2023-05-13T01:36:44;2.28;;;1.70;;
51814;SDS011;37874;53.158;6.766;2023-05-13T01:39:10;2.58;;;1.70;;
51814;SDS011;37874;53.158;6.766;2023-05-13T01:41:37;2.45;;;1.50;;
51814;SDS011;37874;53.158;6.766;2023-05-13T01:44:02;3.08;;;1.67;;
51814;SDS011;37874;53.158;6.766;2023-05-13T01:46:28;2.20;;;1.58;;
51814;SDS011;37874;53.158;6.766;2023-05-13T01:48:54;3.28;;;1.50;;
51814;SDS011;37874;53.158;6.766;2023-05-13T01:51:20;2.33;;;1.65;;
51814;SDS011;37874;53.158;6.766;2023-05-13T01:53:45;3.58;;;1.95;;
51814;SDS011;37874;53.158;6.766;2023-05-13T01:56:11;3.00;;;1.65;;
51814;SDS011;37874;53.158;6.766;2023-05-13T01:58:36;3.15;;;1.67;;
51814;SDS011;37874;53.158;6.766;2023-05-13T02:01:02;2.50;;;1.45;;
51814;SDS011;37874;53.158;6.766;2023-05-13T02:03:28;2.92;;;1.70;;
51814;SDS011;37874;53.158;6.766;2023-05-13T02:05:54;3.30;;;1.48;;
51814;SDS011;37874;53.158;6.766;2023-05-13T02:08:20;3.63;;;1.95;;
51814;SDS011;37874;53.158;6.766;2023-05-13T02:10:54;4.13;;;2.00;;
51814;SDS011;37874;53.158;6.766;2023-05-13T02:13:20;3.15;;;1.88;;
51814;SDS011;37874;53.158;6.766;2023-05-13T02:15:46;2.55;;;1.60;;
51814;SDS011;37874;53.158;6.766;2023-05-13T02:18:11;2.90;;;1.80;;
51814;SDS011;37874;53.158;6.766;2023-05-13T02:20:37;3.15;;;1.70;;
51814;SDS011;37874;53.158;6.766;2023-05-13T02:23:02;2.35;;;1.50;;
51814;SDS011;37874;53.158;6.766;2023-05-13T02:25:28;2.40;;;1.65;;
51814;SDS011;37874;53.158;6.766;2023-05-13T02:27:53;2.42;;;1.60;;
51814;SDS011;37874;53.158;6.766;2023-05-13T02:30:19;2.42;;;1.50;;
51814;SDS011;37874;53.158;6.766;2023-05-13T02:32:45;2.38;;;1.70;;
51814;SDS011;37874;53.158;6.766;2023-05-13T02:35:11;2.35;;;1.60;;
51814;SDS011;37874;53.158;6.766;2023-05-13T02:37:37;2.17;;;1.63;;
51814;SDS011;37874;53.158;6.766;2023-05-13T02:40:02;2.50;;;1.60;;
51814;SDS011;37874;53.158;6.766;2023-05-13T02:42:28;2.90;;;1.60;;
51814;SDS011;37874;53.158;6.766;2023-05-13T02:44:54;2.75;;;1.50;;
51814;SDS011;37874;53.158;6.766;2023-05-13T02:47:19;2.75;;;1.55;;
51814;SDS011;37874;53.158;6.766;2023-05-13T02:49:45;2.97;;;1.70;;
51814;SDS011;37874;53.158;6.766;2023-05-13T02:52:11;2.47;;;1.50;;
51814;SDS011;37874;53.158;6.766;2023-05-13T02:54:36;2.38;;;1.52;;
51814;SDS011;37874;53.158;6.766;2023-05-13T02:57:02;2.45;;;1.52;;
51814;SDS011;37874;53.158;6.766;2023-05-13T02:59:27;2.35;;;1.63;;
51814;SDS011;37874;53.158;6.766;2023-05-13T03:01:53;2.38;;;1.40;;
51814;SDS011;37874;53.158;6.766;2023-05-13T03:04:18;3.05;;;1.45;;
51814;SDS011;37874;53.158;6.766;2023-05-13T03:06:45;3.45;;;1.60;;
51814;SDS011;37874;53.158;6.766;2023-05-13T03:09:11;2.53;;;1.60;;
51814;SDS011;37874;53.158;6.766;2023-05-13T03:11:36;2.67;;;1.70;;
51814;SDS011;37874;53.158;6.766;2023-05-13T03:14:02;2.75;;;1.75;;
51814;SDS011;37874;53.158;6.766;2023-05-13T03:16:28;2.88;;;1.70;;
51814;SDS011;37874;53.158;6.766;2023-05-13T03:18:53;3.67;;;1.90;;
51814;SDS011;37874;53.158;6.766;2023-05-13T03:21:19;2.95;;;1.52;;
51814;SDS011;37874;53.158;6.766;2023-05-13T03:23:44;2.53;;;1.55;;
51814;SDS011;37874;53.158;6.766;2023-05-13T03:26:10;2.08;;;1.33;;
51814;SDS011;37874;53.158;6.766;2023-05-13T03:28:35;2.40;;;1.80;;
51814;SDS011;37874;53.158;6.766;2023-05-13T03:31:01;2.30;;;1.52;;
51814;SDS011;37874;53.158;6.766;2023-05-13T03:33:27;2.92;;;1.73;;
51814;SDS011;37874;53.158;6.766;2023-05-13T03:35:53;3.33;;;1.67;;
51814;SDS011;37874;53.158;6.766;2023-05-13T03:38:19;2.30;;;1.50;;
51814;SDS011;37874;53.158;6.766;2023-05-13T03:40:45;3.13;;;1.70;;
51814;SDS011;37874;53.158;6.766;2023-05-13T03:43:11;2.40;;;1.60;;
51814;SDS011;37874;53.158;6.766;2023-05-13T03:45:36;2.30;;;1.65;;
51814;SDS011;37874;53.158;6.766;2023-05-13T03:48:02;3.00;;;1.70;;
51814;SDS011;37874;53.158;6.766;2023-05-13T03:50:28;3.45;;;1.80;;
51814;SDS011;37874;53.158;6.766;2023-05-13T03:52:54;2.70;;;1.70;;
51814;SDS011;37874;53.158;6.766;2023-05-13T03:55:20;2.50;;;1.50;;
51814;SDS011;37874;53.158;6.766;2023-05-13T03:57:46;3.05;;;1.90;;
51814;SDS011;37874;53.158;6.766;2023-05-13T04:00:13;2.55;;;1.42;;
51814;SDS011;37874;53.158;6.766;2023-05-13T04:02:39;2.63;;;1.80;;
51814;SDS011;37874;53.158;6.766;2023-05-13T04:05:05;2.13;;;1.50;;
51814;SDS011;37874;53.158;6.766;2023-05-13T04:07:31;3.13;;;1.70;;
51814;SDS011;37874;53.158;6.766;2023-05-13T04:09:56;2.78;;;1.65;;
51814;SDS011;37874;53.158;6.766;2023-05-13T04:12:22;2.30;;;1.80;;
51814;SDS011;37874;53.158;6.766;2023-05-13T04:14:47;3.17;;;1.50;;
51814;SDS011;37874;53.158;6.766;2023-05-13T04:17:13;2.42;;;1.50;;
51814;SDS011;37874;53.158;6.766;2023-05-13T04:19:38;2.47;;;1.80;;
51814;SDS011;37874;53.158;6.766;2023-05-13T04:22:04;3.40;;;1.60;;
51814;SDS011;37874;53.158;6.766;2023-05-13T04:24:30;2.38;;;1.60;;
51814;SDS011;37874;53.158;6.766;2023-05-13T04:26:55;2.70;;;1.80;;
51814;SDS011;37874;53.158;6.766;2023-05-13T04:29:21;5.00;;;1.70;;
51814;SDS011;37874;53.158;6.766;2023-05-13T04:31:46;2.60;;;1.60;;
51814;SDS011;37874;53.158;6.766;2023-05-13T04:34:12;3.38;;;1.60;;
51814;SDS011;37874;53.158;6.766;2023-05-13T04:36:38;3.67;;;1.60;;
51814;SDS011;37874;53.158;6.766;2023-05-13T04:39:03;2.13;;;1.48;;
51814;SDS011;37874;53.158;6.766;2023-05-13T04:41:29;2.25;;;1.45;;
51814;SDS011;37874;53.158;6.766;2023-05-13T04:43:54;3.15;;;1.80;;
51814;SDS011;37874;53.158;6.766;2023-05-13T04:46:20;2.67;;;1.70;;
51814;SDS011;37874;53.158;6.766;2023-05-13T04:48:46;2.58;;;1.60;;
51814;SDS011;37874;53.158;6.766;2023-05-13T04:51:12;2.65;;;1.67;;
51814;SDS011;37874;53.158;6.766;2023-05-13T04:53:39;3.50;;;1.70;;
51814;SDS011;37874;53.158;6.766;2023-05-13T04:56:05;3.28;;;1.80;;
51814;SDS011;37874;53.158;6.766;2023-05-13T04:58:31;2.75;;;1.50;;
51814;SDS011;37874;53.158;6.766;2023-05-13T05:00:56;3.45;;;1.50;;
51814;SDS011;37874;53.158;6.766;2023-05-13T05:03:22;2.72;;;1.58;;
51814;SDS011;37874;53.158;6.766;2023-05-13T05:05:48;2.10;;;1.50;;
51814;SDS011;37874;53.158;6.766;2023-05-13T05:08:14;3.28;;;1.70;;
51814;SDS011;37874;53.158;6.766;2023-05-13T05:10:40;2.88;;;1.77;;
51814;SDS011;37874;53.158;6.766;2023-05-13T05:13:06;2.28;;;1.60;;
51814;SDS011;37874;53.158;6.766;2023-05-13T05:15:32;3.40;;;1.90;;
51814;SDS011;37874;53.158;6.766;2023-05-13T05:17:58;3.25;;;1.67;;
51814;SDS011;37874;53.158;6.766;2023-05-13T05:20:24;3.67;;;1.63;;
51814;SDS011;37874;53.158;6.766;2023-05-13T05:22:49;2.42;;;1.50;;
51814;SDS011;37874;53.158;6.766;2023-05-13T05:25:15;2.60;;;1.50;;
51814;SDS011;37874;53.158;6.766;2023-05-13T05:27:40;2.08;;;1.42;;
51814;SDS011;37874;53.158;6.766;2023-05-13T05:30:07;2.30;;;1.58;;
51814;SDS011;37874;53.158;6.766;2023-05-13T05:32:34;2.97;;;1.73;;
51814;SDS011;37874;53.158;6.766;2023-05-13T05:34:59;3.17;;;1.70;;
51814;SDS011;37874;53.158;6.766;2023-05-13T05:37:26;4.28;;;2.15;;
51814;SDS011;37874;53.158;6.766;2023-05-13T05:39:53;2.58;;;1.67;;
51814;SDS011;37874;53.158;6.766;2023-05-13T05:42:18;2.45;;;1.60;;
51814;SDS011;37874;53.158;6.766;2023-05-13T05:44:44;4.03;;;1.70;;
51814;SDS011;37874;53.158;6.766;2023-05-13T05:47:11;2.30;;;1.50;;
51814;SDS011;37874;53.158;6.766;2023-05-13T05:49:37;3.40;;;1.80;;
51814;SDS011;37874;53.158;6.766;2023-05-13T05:52:02;3.17;;;1.60;;
51814;SDS011;37874;53.158;6.766;2023-05-13T05:54:29;2.50;;;1.40;;
51814;SDS011;37874;53.158;6.766;2023-05-13T05:56:54;3.75;;;1.67;;
51814;SDS011;37874;53.158;6.766;2023-05-13T05:59:20;2.53;;;1.52;;
51814;SDS011;37874;53.158;6.766;2023-05-13T06:01:46;3.00;;;2.15;;
51814;SDS011;37874;53.158;6.766;2023-05-13T06:04:11;2.53;;;1.75;;
51814;SDS011;37874;53.158;6.766;2023-05-13T06:06:37;2.90;;;1.83;;
51814;SDS011;37874;53.158;6.766;2023-05-13T06:09:04;2.72;;;1.70;;
51814;SDS011;37874;53.158;6.766;2023-05-13T06:11:30;4.30;;;1.95;;
51814;SDS011;37874;53.158;6.766;2023-05-13T06:13:55;3.15;;;1.92;;
51814;SDS011;37874;53.158;6.766;2023-05-13T06:16:21;2.20;;;1.52;;
51814;SDS011;37874;53.158;6.766;2023-05-13T06:18:47;2.50;;;1.60;;
51814;SDS011;37874;53.158;6.766;2023-05-13T06:21:13;3.17;;;1.80;;
51814;SDS011;37874;53.158;6.766;2023-05-13T06:23:39;3.33;;;1.90;;
51814;SDS011;37874;53.158;6.766;2023-05-13T06:26:04;2.55;;;1.60;;
51814;SDS011;37874;53.158;6.766;2023-05-13T06:28:30;3.55;;;1.70;;
51814;SDS011;37874;53.158;6.766;2023-05-13T06:30:56;2.65;;;1.52;;
51814;SDS011;37874;53.158;6.766;2023-05-13T06:33:21;3.03;;;1.70;;
51814;SDS011;37874;53.158;6.766;2023-05-13T06:35:47;2.53;;;1.70;;
51814;SDS011;37874;53.158;6.766;2023-05-13T06:38:14;2.95;;;1.60;;
51814;SDS011;37874;53.158;6.766;2023-05-13T06:40:43;3.03;;;1.83;;
51814;SDS011;37874;53.158;6.766;2023-05-13T06:43:09;3.08;;;1.70;;
51814;SDS011;37874;53.158;6.766;2023-05-13T06:45:38;2.63;;;1.70;;
51814;SDS011;37874;53.158;6.766;2023-05-13T06:48:04;2.35;;;1.80;;
51814;SDS011;37874;53.158;6.766;2023-05-13T06:50:29;2.70;;;1.60;;
51814;SDS011;37874;53.158;6.766;2023-05-13T06:52:55;3.13;;;1.70;;
51814;SDS011;37874;53.158;6.766;2023-05-13T06:55:21;2.58;;;1.55;;
51814;SDS011;37874;53.158;6.766;2023-05-13T06:57:47;2.78;;;1.70;;
51814;SDS011;37874;53.158;6.766;2023-05-13T07:00:13;2.55;;;1.67;;
51814;SDS011;37874;53.158;6.766;2023-05-13T07:02:39;3.35;;;1.90;;
51814;SDS011;37874;53.158;6.766;2023-05-13T07:05:06;2.58;;;1.70;;
51814;SDS011;37874;53.158;6.766;2023-05-13T07:07:32;3.00;;;1.65;;
51814;SDS011;37874;53.158;6.766;2023-05-13T07:09:58;2.78;;;1.80;;
51814;SDS011;37874;53.158;6.766;2023-05-13T07:12:23;2.75;;;1.60;;
51814;SDS011;37874;53.158;6.766;2023-05-13T07:14:49;2.58;;;1.50;;
51814;SDS011;37874;53.158;6.766;2023-05-13T07:17:15;3.95;;;1.60;;
51814;SDS011;37874;53.158;6.766;2023-05-13T07:19:41;2.90;;;1.70;;
51814;SDS011;37874;53.158;6.766;2023-05-13T07:22:06;2.38;;;1.60;;
51814;SDS011;37874;53.158;6.766;2023-05-13T07:24:32;2.55;;;1.80;;
51814;SDS011;37874;53.158;6.766;2023-05-13T07:26:58;2.55;;;1.67;;
51814;SDS011;37874;53.158;6.766;2023-05-13T07:29:23;3.00;;;1.75;;
51814;SDS011;37874;53.158;6.766;2023-05-13T07:31:49;2.47;;;1.50;;
51814;SDS011;37874;53.158;6.766;2023-05-13T07:34:16;3.47;;;1.58;;
51814;SDS011;37874;53.158;6.766;2023-05-13T07:36:41;2.20;;;1.50;;
51814;SDS011;37874;53.158;6.766;2023-05-13T07:39:07;4.20;;;1.70;;
51814;SDS011;37874;53.158;6.766;2023-05-13T07:41:33;2.33;;;1.50;;
51814;SDS011;37874;53.158;6.766;2023-05-13T07:44:00;3.47;;;1.63;;
51814;SDS011;37874;53.158;6.766;2023-05-13T07:46:25;3.00;;;1.70;;
51814;SDS011;37874;53.158;6.766;2023-05-13T07:48:51;3.33;;;1.80;;
51814;SDS011;37874;53.158;6.766;2023-05-13T07:51:16;3.40;;;1.75;;
51814;SDS011;37874;53.158;6.766;2023-05-13T07:53:42;2.95;;;1.73;;
51814;SDS011;37874;53.158;6.766;2023-05-13T07:56:09;3.22;;;1.60;;
51814;SDS011;37874;53.158;6.766;2023-05-13T07:58:34;2.38;;;1.58;;
51814;SDS011;37874;53.158;6.766;2023-05-13T08:01:01;4.07;;;1.60;;
51814;SDS011;37874;53.158;6.766;2023-05-13T08:03:29;2.78;;;1.70;;
51814;SDS011;37874;53.158;6.766;2023-05-13T08:05:54;2.83;;;1.73;;
51814;SDS011;37874;53.158;6.766;2023-05-13T08:08:20;2.90;;;1.63;;
51814;SDS011;37874;53.158;6.766;2023-05-13T08:10:46;2.55;;;1.55;;
51814;SDS011;37874;53.158;6.766;2023-05-13T08:13:11;3.15;;;2.05;;
51814;SDS011;37874;53.158;6.766;2023-05-13T08:15:37;3.55;;;1.60;;
51814;SDS011;37874;53.158;6.766;2023-05-13T08:18:03;2.60;;;1.60;;
51814;SDS011;37874;53.158;6.766;2023-05-13T08:20:28;2.85;;;1.70;;
51814;SDS011;37874;53.158;6.766;2023-05-13T08:22:57;3.13;;;1.65;;
51814;SDS011;37874;53.158;6.766;2023-05-13T08:25:23;2.28;;;1.52;;
51814;SDS011;37874;53.158;6.766;2023-05-13T08:27:49;2.55;;;1.80;;
51814;SDS011;37874;53.158;6.766;2023-05-13T08:30:14;2.55;;;1.80;;
51814;SDS011;37874;53.158;6.766;2023-05-13T08:32:40;2.28;;;1.60;;
51814;SDS011;37874;53.158;6.766;2023-05-13T08:35:06;3.25;;;1.85;;
51814;SDS011;37874;53.158;6.766;2023-05-13T08:37:32;4.80;;;1.63;;
51814;SDS011;37874;53.158;6.766;2023-05-13T08:39:57;3.55;;;1.73;;
51814;SDS011;37874;53.158;6.766;2023-05-13T08:42:26;3.20;;;1.85;;
51814;SDS011;37874;53.158;6.766;2023-05-13T08:44:53;3.08;;;1.80;;
51814;SDS011;37874;53.158;6.766;2023-05-13T08:47:28;2.42;;;1.70;;
51814;SDS011;37874;53.158;6.766;2023-05-13T08:49:55;3.42;;;1.83;;
51814;SDS011;37874;53.158;6.766;2023-05-13T08:52:22;3.88;;;1.70;;
51814;SDS011;37874;53.158;6.766;2023-05-13T08:54:47;3.92;;;1.80;;
51814;SDS011;37874;53.158;6.766;2023-05-13T08:57:13;2.90;;;1.67;;
51814;SDS011;37874;53.158;6.766;2023-05-13T08:59:40;2.38;;;1.75;;
51814;SDS011;37874;53.158;6.766;2023-05-13T09:02:05;2.92;;;1.60;;
51814;SDS011;37874;53.158;6.766;2023-05-13T09:04:32;5.15;;;2.03;;
51814;SDS011;37874;53.158;6.766;2023-05-13T09:07:02;4.03;;;1.92;;
51814;SDS011;37874;53.158;6.766;2023-05-13T09:09:31;3.60;;;2.10;;
51814;SDS011;37874;53.158;6.766;2023-05-13T09:11:57;3.97;;;2.00;;
51814;SDS011;37874;53.158;6.766;2023-05-13T09:14:26;3.45;;;1.75;;
51814;SDS011;37874;53.158;6.766;2023-05-13T09:16:55;3.22;;;1.98;;
51814;SDS011;37874;53.158;6.766;2023-05-13T09:19:22;4.07;;;1.85;;
51814;SDS011;37874;53.158;6.766;2023-05-13T09:21:48;5.47;;;2.20;;
51814;SDS011;37874;53.158;6.766;2023-05-13T09:24:14;2.80;;;1.42;;
51814;SDS011;37874;53.158;6.766;2023-05-13T09:26:46;2.50;;;1.60;;
51814;SDS011;37874;53.158;6.766;2023-05-13T09:29:23;3.28;;;1.83;;
51814;SDS011;37874;53.158;6.766;2023-05-13T09:31:53;4.30;;;1.67;;
51814;SDS011;37874;53.158;6.766;2023-05-13T09:34:23;3.67;;;1.80;;
51814;SDS011;37874;53.158;6.766;2023-05-13T09:36:54;3.03;;;1.90;;
51814;SDS011;37874;53.158;6.766;2023-05-13T09:39:23;2.95;;;1.80;;
51814;SDS011;37874;53.158;6.766;2023-05-13T09:41:49;2.78;;;1.60;;
51814;SDS011;37874;53.158;6.766;2023-05-13T09:44:16;2.58;;;1.58;;
51814;SDS011;37874;53.158;6.766;2023-05-13T09:46:42;3.10;;;1.73;;
51814;SDS011;37874;53.158;6.766;2023-05-13T09:49:10;3.00;;;1.70;;
51814;SDS011;37874;53.158;6.766;2023-05-13T09:51:36;3.60;;;1.75;;
51814;SDS011;37874;53.158;6.766;2023-05-13T09:54:05;2.78;;;1.65;;
51814;SDS011;37874;53.158;6.766;2023-05-13T09:56:31;3.47;;;1.70;;
51814;SDS011;37874;53.158;6.766;2023-05-13T09:58:59;2.80;;;1.75;;
51814;SDS011;37874;53.158;6.766;2023-05-13T10:01:26;3.00;;;1.58;;
51814;SDS011;37874;53.158;6.766;2023-05-13T10:03:55;3.50;;;1.50;;
51814;SDS011;37874;53.158;6.766;2023-05-13T10:06:23;2.72;;;1.60;;
51814;SDS011;37874;53.158;6.766;2023-05-13T10:08:50;3.20;;;2.03;;
51814;SDS011;37874;53.158;6.766;2023-05-13T10:11:19;3.10;;;1.50;;
51814;SDS011;37874;53.158;6.766;2023-05-13T10:13:53;3.92;;;1.70;;
51814;SDS011;37874;53.158;6.766;2023-05-13T10:16:23;2.58;;;1.60;;
51814;SDS011;37874;53.158;6.766;2023-05-13T10:18:49;2.88;;;1.45;;
51814;SDS011;37874;53.158;6.766;2023-05-13T10:21:16;2.85;;;1.70;;
51814;SDS011;37874;53.158;6.766;2023-05-13T10:23:43;2.30;;;1.48;;
51814;SDS011;37874;53.158;6.766;2023-05-13T10:26:10;2.40;;;1.60;;
51814;SDS011;37874;53.158;6.766;2023-05-13T10:28:37;2.33;;;1.60;;
51814;SDS011;37874;53.158;6.766;2023-05-13T10:31:03;2.67;;;1.50;;
51814;SDS011;37874;53.158;6.766;2023-05-13T10:33:28;1.92;;;1.35;;
51814;SDS011;37874;53.158;6.766;2023-05-13T10:39:14;2.70;;;1.58;;
51814;SDS011;37874;53.158;6.766;2023-05-13T10:42:18;2.60;;;1.60;;
51814;SDS011;37874;53.158;6.766;2023-05-13T10:44:59;3.08;;;2.03;;
51814;SDS011;37874;53.158;6.766;2023-05-13T10:47:25;2.53;;;1.50;;
51814;SDS011;37874;53.158;6.766;2023-05-13T10:49:51;2.47;;;1.60;;
51814;SDS011;37874;53.158;6.766;2023-05-13T10:52:17;2.47;;;1.58;;
51814;SDS011;37874;53.158;6.766;2023-05-13T10:54:43;2.53;;;1.65;;
51814;SDS011;37874;53.158;6.766;2023-05-13T10:57:27;2.53;;;1.73;;
51814;SDS011;37874;53.158;6.766;2023-05-13T11:00:13;2.42;;;1.50;;
51814;SDS011;37874;53.158;6.766;2023-05-13T11:02:40;2.35;;;1.30;;
51814;SDS011;37874;53.158;6.766;2023-05-13T11:05:06;2.38;;;1.48;;
51814;SDS011;37874;53.158;6.766;2023-05-13T11:07:36;2.20;;;1.30;;
51814;SDS011;37874;53.158;6.766;2023-05-13T11:10:04;2.55;;;1.48;;
51814;SDS011;37874;53.158;6.766;2023-05-13T11:15:50;2.47;;;1.50;;
51814;SDS011;37874;53.158;6.766;2023-05-13T11:18:17;2.13;;;1.27;;
51814;SDS011;37874;53.158;6.766;2023-05-13T11:20:51;2.22;;;1.40;;
51814;SDS011;37874;53.158;6.766;2023-05-13T11:23:20;2.97;;;1.70;;
51814;SDS011;37874;53.158;6.766;2023-05-13T11:25:46;2.28;;;1.50;;
51814;SDS011;37874;53.158;6.766;2023-05-13T11:29:02;3.28;;;1.83;;
51814;SDS011;37874;53.158;6.766;2023-05-13T11:31:40;2.10;;;1.40;;
51814;SDS011;37874;53.158;6.766;2023-05-13T11:34:15;2.17;;;1.42;;
51814;SDS011;37874;53.158;6.766;2023-05-13T11:36:43;2.22;;;1.40;;
51814;SDS011;37874;53.158;6.766;2023-05-13T11:39:31;3.20;;;1.75;;
51814;SDS011;37874;53.158;6.766;2023-05-13T11:41:57;2.33;;;1.50;;
51814;SDS011;37874;53.158;6.766;2023-05-13T11:44:25;2.10;;;1.35;;
51814;SDS011;37874;53.158;6.766;2023-05-13T11:46:55;2.58;;;1.40;;
51814;SDS011;37874;53.158;6.766;2023-05-13T11:49:42;3.20;;;1.58;;
51814;SDS011;37874;53.158;6.766;2023-05-13T11:52:09;3.53;;;1.45;;
51814;SDS011;37874;53.158;6.766;2023-05-13T11:54:43;2.40;;;1.30;;
51814;SDS011;37874;53.158;6.766;2023-05-13T11:57:22;2.65;;;1.50;;
51814;SDS011;37874;53.158;6.766;2023-05-13T11:59:53;2.22;;;1.42;;
51814;SDS011;37874;53.158;6.766;2023-05-13T12:02:29;2.20;;;1.30;;
51814;SDS011;37874;53.158;6.766;2023-05-13T12:05:07;2.53;;;1.50;;
51814;SDS011;37874;53.158;6.766;2023-05-13T12:07:35;2.00;;;1.40;;
51814;SDS011;37874;53.158;6.766;2023-05-13T12:10:02;2.10;;;1.40;;
51814;SDS011;37874;53.158;6.766;2023-05-13T12:12:29;2.05;;;1.30;;
51814;SDS011;37874;53.158;6.766;2023-05-13T12:14:57;4.63;;;1.60;;
51814;SDS011;37874;53.158;6.766;2023-05-13T12:17:24;2.45;;;1.60;;
51814;SDS011;37874;53.158;6.766;2023-05-13T12:20:03;2.63;;;1.48;;
51814;SDS011;37874;53.158;6.766;2023-05-13T12:27:57;2.67;;;1.40;;
51814;SDS011;37874;53.158;6.766;2023-05-13T12:30:23;1.98;;;1.20;;
51814;SDS011;37874;53.158;6.766;2023-05-13T12:32:48;2.00;;;1.38;;
51814;SDS011;37874;53.158;6.766;2023-05-13T12:35:14;2.00;;;1.23;;
51814;SDS011;37874;53.158;6.766;2023-05-13T12:37:40;2.05;;;1.30;;
51814;SDS011;37874;53.158;6.766;2023-05-13T12:40:09;1.60;;;1.17;;
51814;SDS011;37874;53.158;6.766;2023-05-13T12:42:35;2.35;;;1.20;;
51814;SDS011;37874;53.158;6.766;2023-05-13T12:45:01;2.35;;;1.33;;
51814;SDS011;37874;53.158;6.766;2023-05-13T12:47:27;3.20;;;1.20;;
51814;SDS011;37874;53.158;6.766;2023-05-13T12:49:53;1.80;;;1.13;;
51814;SDS011;37874;53.158;6.766;2023-05-13T12:52:20;2.20;;;1.40;;
51814;SDS011;37874;53.158;6.766;2023-05-13T12:54:46;2.35;;;1.45;;
51814;SDS011;37874;53.158;6.766;2023-05-13T12:57:14;1.88;;;1.17;;
51814;SDS011;37874;53.158;6.766;2023-05-13T12:59:41;2.38;;;1.33;;
51814;SDS011;37874;53.158;6.766;2023-05-13T13:02:08;2.13;;;1.35;;
51814;SDS011;37874;53.158;6.766;2023-05-13T13:04:34;1.83;;;1.10;;
51814;SDS011;37874;53.158;6.766;2023-05-13T13:07:00;2.55;;;1.27;;
51814;SDS011;37874;53.158;6.766;2023-05-13T13:09:25;2.20;;;1.00;;
51814;SDS011;37874;53.158;6.766;2023-05-13T13:11:51;2.05;;;1.20;;
51814;SDS011;37874;53.158;6.766;2023-05-13T13:14:17;2.42;;;1.40;;
51814;SDS011;37874;53.158;6.766;2023-05-13T13:16:42;4.53;;;1.50;;
51814;SDS011;37874;53.158;6.766;2023-05-13T13:19:08;1.90;;;1.13;;
51814;SDS011;37874;53.158;6.766;2023-05-13T13:21:34;1.95;;;1.27;;
51814;SDS011;37874;53.158;6.766;2023-05-13T13:23:59;2.53;;;1.42;;
51814;SDS011;37874;53.158;6.766;2023-05-13T13:26:25;1.42;;;0.93;;
51814;SDS011;37874;53.158;6.766;2023-05-13T13:28:51;1.95;;;1.20;;
51814;SDS011;37874;53.158;6.766;2023-05-13T13:31:16;1.80;;;1.13;;
51814;SDS011;37874;53.158;6.766;2023-05-13T13:33:42;2.72;;;1.30;;
51814;SDS011;37874;53.158;6.766;2023-05-13T13:36:08;1.85;;;1.10;;
51814;SDS011;37874;53.158;6.766;2023-05-13T13:38:33;2.72;;;1.00;;
51814;SDS011;37874;53.158;6.766;2023-05-13T13:40:59;1.88;;;1.23;;
51814;SDS011;37874;53.158;6.766;2023-05-13T13:43:24;2.35;;;1.25;;
51814;SDS011;37874;53.158;6.766;2023-05-13T13:45:50;2.72;;;1.10;;
51814;SDS011;37874;53.158;6.766;2023-05-13T13:48:16;1.85;;;1.10;;
51814;SDS011;37874;53.158;6.766;2023-05-13T13:50:42;2.05;;;1.17;;
51814;SDS011;37874;53.158;6.766;2023-05-13T13:53:07;2.15;;;1.05;;
51814;SDS011;37874;53.158;6.766;2023-05-13T13:55:33;2.05;;;1.15;;
51814;SDS011;37874;53.158;6.766;2023-05-13T13:57:58;1.60;;;1.00;;
51814;SDS011;37874;53.158;6.766;2023-05-13T14:00:24;3.70;;;1.30;;
51814;SDS011;37874;53.158;6.766;2023-05-13T14:02:50;1.60;;;1.00;;
51814;SDS011;37874;53.158;6.766;2023-05-13T14:05:15;3.17;;;1.10;;
51814;SDS011;37874;53.158;6.766;2023-05-13T14:07:41;1.73;;;0.90;;
51814;SDS011;37874;53.158;6.766;2023-05-13T14:10:07;2.13;;;1.00;;
51814;SDS011;37874;53.158;6.766;2023-05-13T14:12:33;1.50;;;0.80;;
51814;SDS011;37874;53.158;6.766;2023-05-13T14:15:02;2.33;;;1.00;;
51814;SDS011;37874;53.158;6.766;2023-05-13T14:17:28;2.20;;;1.00;;
51814;SDS011;37874;53.158;6.766;2023-05-13T14:19:53;2.10;;;1.00;;
51814;SDS011;37874;53.158;6.766;2023-05-13T14:22:20;1.95;;;1.00;;
51814;SDS011;37874;53.158;6.766;2023-05-13T14:24:47;1.48;;;0.75;;
51814;SDS011;37874;53.158;6.766;2023-05-13T14:27:13;1.42;;;0.90;;
51814;SDS011;37874;53.158;6.766;2023-05-13T14:29:38;1.60;;;1.00;;
51814;SDS011;37874;53.158;6.766;2023-05-13T14:32:04;2.20;;;1.00;;
51814;SDS011;37874;53.158;6.766;2023-05-13T14:34:31;1.90;;;0.93;;
51814;SDS011;37874;53.158;6.766;2023-05-13T14:36:58;1.38;;;0.75;;
51814;SDS011;37874;53.158;6.766;2023-05-13T14:39:23;2.28;;;0.90;;
51814;SDS011;37874;53.158;6.766;2023-05-13T14:41:49;1.77;;;1.00;;
51814;SDS011;37874;53.158;6.766;2023-05-13T14:44:14;2.03;;;1.00;;
51814;SDS011;37874;53.158;6.766;2023-05-13T14:46:40;2.92;;;0.90;;
51814;SDS011;37874;53.158;6.766;2023-05-13T14:49:06;1.88;;;0.90;;
51814;SDS011;37874;53.158;6.766;2023-05-13T14:51:35;1.45;;;0.80;;
51814;SDS011;37874;53.158;6.766;2023-05-13T14:54:01;1.40;;;0.90;;
51814;SDS011;37874;53.158;6.766;2023-05-13T14:56:26;2.33;;;1.10;;
51814;SDS011;37874;53.158;6.766;2023-05-13T14:58:52;1.98;;;1.00;;
51814;SDS011;37874;53.158;6.766;2023-05-13T15:01:18;1.45;;;0.82;;
51814;SDS011;37874;53.158;6.766;2023-05-13T15:03:43;2.08;;;1.00;;
51814;SDS011;37874;53.158;6.766;2023-05-13T15:06:09;1.95;;;1.00;;